Time;durP1;ratioP1;P1;durP2;ratioP2;P2;SDS_P1;SDS_P2;PMS_P1;PMS_P2;Temp;Humidity;BMP_temperature;BMP_pressure;BME280_temperature;BME280_humidity;BME280_pressure;Samples;Min_cycle;Max_cycle;Signal;HPM_P1;HPM_P2
2022/01/30 00:27:03;;;;;;;46.15;8.65;;;;;;;;;;6174901;23;20080;-94
2022/01/30 00:29:40;;;;;;;53.13;10.18;;;;;;;;;;6166695;23;20013;-94
2022/01/30 00:32:07;;;;;;;55.03;10.63;;;;;;;;;;6169941;23;20021;-93
2022/01/30 00:34:40;;;;;;;55.85;10.05;;;;;;;;;;6170064;23;20036;-94
2022/01/30 00:37:05;;;;;;;58.55;10.65;;;;;;;;;;6192309;23;20353;-94
2022/01/30 00:39:31;;;;;;;57.65;10.10;;;;;;;;;;6189034;23;20045;-94
2022/01/30 00:57:49;;;;;;;58.97;10.48;;;;;;;;;;6167956;23;20037;-94
2022/01/30 01:02:47;;;;;;;;;;;;;;;;;;6189314;23;20029;-93
2022/01/30 01:05:14;;;;;;;54.33;9.82;;;;;;;;;;6167680;23;19912;-93
2022/01/30 01:07:45;;;;;;;47.05;9.00;;;;;;;;;;6197425;23;20095;-94
2022/01/30 01:23:40;;;;;;;59.22;12.45;;;;;;;;;;6161087;23;20031;31
2022/01/30 01:26:16;;;;;;;67.43;13.02;;;;;;;;;;6139417;23;20053;-94
2022/01/30 01:28:54;;;;;;;63.75;13.15;;;;;;;;;;6194488;23;20089;-93
2022/01/30 01:31:30;;;;;;;73.07;13.02;;;;;;;;;;6183237;22;20025;-92
2022/01/30 01:36:27;;;;;;;67.28;13.23;;;;;;;;;;6136527;23;20009;-92
2022/01/30 01:38:52;;;;;;;65.47;13.15;;;;;;;;;;6124520;23;20743;-93
2022/01/30 01:41:21;;;;;;;55.55;11.82;;;;;;;;;;6125186;23;20380;-93
2022/01/30 01:43:48;;;;;;;64.00;11.85;;;;;;;;;;6124744;23;20071;-93
2022/01/30 01:46:18;;;;;;;75.50;12.27;;;;;;;;;;6124161;23;20002;-93
2022/01/30 01:48:45;;;;;;;68.05;12.90;;;;;;;;;;6123334;23;20013;-93
2022/01/30 01:51:16;;;;;;;70.03;12.05;;;;;;;;;;6122880;23;20001;-93
2022/01/30 01:53:42;;;;;;;58.28;12.05;;;;;;;;;;6125741;23;20029;-93
2022/01/30 01:56:08;;;;;;;70.03;12.40;;;;;;;;;;6124805;23;20025;-93
2022/01/30 01:58:33;;;;;;;77.35;15.48;;;;;;;;;;6100397;23;20076;-93
2022/01/30 02:01:00;;;;;;;68.05;12.48;;;;;;;;;;6124555;23;20040;-92
2022/01/30 02:03:26;;;;;;;65.20;11.73;;;;;;;;;;6123780;23;20008;-92
2022/01/30 02:05:56;;;;;;;60.88;12.75;;;;;;;;;;6124899;23;20113;-93
2022/01/30 02:11:09;;;;;;;72.38;11.82;;;;;;;;;;6135154;23;20001;-93
2022/01/30 02:14:00;;;;;;;57.05;11.07;;;;;;;;;;6128901;23;20080;-94
2022/01/30 02:24:49;;;;;;;71.68;11.48;;;;;;;;;;6131601;23;20491;-94
2022/01/30 02:27:18;;;;;;;70.13;13.32;;;;;;;;;;6130251;23;20025;-93
2022/01/30 02:29:44;;;;;;;69.38;12.73;;;;;;;;;;6130931;23;20002;-94
2022/01/30 02:32:13;;;;;;;81.35;13.05;;;;;;;;;;6137163;23;20017;-94
2022/01/30 02:37:14;;;;;;;78.25;15.18;;;;;;;;;;6186101;23;20525;-94
2022/01/30 02:39:40;;;;;;;69.53;13.13;;;;;;;;;;6189843;23;20009;-94
2022/01/30 02:44:50;;;;;;;64.35;12.82;;;;;;;;;;6187353;22;20035;-93
2022/01/30 02:50:10;;;;;;;73.30;14.23;;;;;;;;;;6193402;23;20326;-94
2022/01/30 02:52:39;;;;;;;72.25;12.27;;;;;;;;;;6188829;23;20064;-94
2022/01/30 02:55:05;;;;;;;74.15;13.88;;;;;;;;;;6192623;23;20330;-94
2022/01/30 02:57:33;;;;;;;85.05;16.30;;;;;;;;;;6196871;23;19997;-94
2022/01/30 03:00:02;;;;;;;64.35;11.30;;;;;;;;;;6195147;23;20001;-94
2022/01/30 03:02:32;;;;;;;71.72;11.38;;;;;;;;;;6197275;23;20003;-94
2022/01/30 03:08:01;;;;;;;69.47;13.25;;;;;;;;;;6195341;23;20004;-94
2022/01/30 03:13:25;;;;;;;69.28;12.82;;;;;;;;;;6199253;23;20025;-94
2022/01/30 03:15:55;;;;;;;69.03;13.48;;;;;;;;;;6198835;23;20050;-94
2022/01/30 03:18:22;;;;;;;74.15;12.40;;;;;;;;;;6196784;23;20005;-94
2022/01/30 03:20:49;;;;;;;67.10;11.90;;;;;;;;;;6192548;23;20374;-93
2022/01/30 03:23:14;;;;;;;64.32;12.73;;;;;;;;;;6189051;23;20008;-94
2022/01/30 03:25:40;;;;;;;68.75;13.40;;;;;;;;;;6192329;23;20009;-94
2022/01/30 03:28:05;;;;;;;67.82;11.90;;;;;;;;;;6166731;23;20021;-93
2022/01/30 03:30:32;;;;;;;58.45;12.25;;;;;;;;;;6166771;23;20021;-94
2022/01/30 03:38:07;;;;;;;64.90;12.93;;;;;;;;;;6173464;23;20325;-94
2022/01/30 03:40:32;;;;;;;62.67;10.95;;;;;;;;;;6198736;23;19997;-94
2022/01/30 03:42:58;;;;;;;66.00;12.38;;;;;;;;;;6199100;23;19996;-94
2022/01/30 03:45:23;;;;;;;58.90;11.13;;;;;;;;;;6196652;23;20397;-94
2022/01/30 03:47:51;;;;;;;93.35;17.65;;;;;;;;;;6196720;23;20000;-93
2022/01/30 03:50:16;;;;;;;56.40;11.27;;;;;;;;;;6190711;23;20000;-93
2022/01/30 03:52:41;;;;;;;61.17;11.50;;;;;;;;;;6194192;23;20030;-94
2022/01/30 03:55:07;;;;;;;60.03;10.82;;;;;;;;;;6193531;23;20007;-93
2022/01/30 03:57:32;;;;;;;65.22;10.80;;;;;;;;;;6194690;23;20000;-93
2022/01/30 03:59:57;;;;;;;63.08;11.43;;;;;;;;;;6189381;23;20087;-93
2022/01/30 04:02:22;;;;;;;69.65;12.68;;;;;;;;;;6189372;23;20324;-93
2022/01/30 04:04:48;;;;;;;75.82;12.85;;;;;;;;;;6189903;23;20012;-93
2022/01/30 04:07:13;;;;;;;64.22;12.88;;;;;;;;;;6217105;23;20370;-94
2022/01/30 04:09:38;;;;;;;76.00;12.82;;;;;;;;;;6189788;23;20004;-93
2022/01/30 04:12:04;;;;;;;64.90;11.13;;;;;;;;;;6190000;23;19993;-93
2022/01/30 04:14:29;;;;;;;79.90;13.13;;;;;;;;;;6191478;23;20317;-94
2022/01/30 04:16:55;;;;;;;63.53;11.25;;;;;;;;;;6219199;23;20321;-93
2022/01/30 04:19:20;;;;;;;79.05;12.27;;;;;;;;;;6190953;23;20008;-93
2022/01/30 04:21:45;;;;;;;75.18;12.38;;;;;;;;;;6193215;23;20011;-93
2022/01/30 04:24:11;;;;;;;68.53;11.93;;;;;;;;;;6215777;23;20008;-93
2022/01/30 04:26:37;;;;;;;68.85;13.45;;;;;;;;;;6188177;23;20055;-93
2022/01/30 04:29:02;;;;;;;63.00;11.82;;;;;;;;;;6216558;23;20425;-93
2022/01/30 04:31:28;;;;;;;85.13;14.27;;;;;;;;;;6190626;23;20697;-93
2022/01/30 04:33:53;;;;;;;58.17;12.38;;;;;;;;;;6217017;23;20005;-92
2022/01/30 04:36:24;;;;;;;59.95;12.40;;;;;;;;;;6214839;23;20055;-92
2022/01/30 04:39:09;;;;;;;61.67;10.57;;;;;;;;;;6189651;23;20052;-93
2022/01/30 05:07:51;;;;;;;57.63;10.00;;;;;;;;;;6227606;23;20038;-93
2022/01/30 05:10:16;;;;;;;49.92;10.35;;;;;;;;;;6190452;23;20321;-93
2022/01/30 05:12:48;;;;;;;67.95;11.68;;;;;;;;;;6190690;23;20026;-93
2022/01/30 05:15:14;;;;;;;63.90;11.70;;;;;;;;;;6189709;23;20802;-93
2022/01/30 05:17:40;;;;;;;69.38;11.80;;;;;;;;;;6215128;23;20007;-93
2022/01/30 05:20:06;;;;;;;74.57;11.00;;;;;;;;;;6193600;23;20422;-93
2022/01/30 05:22:31;;;;;;;74.40;12.85;;;;;;;;;;6191351;23;20063;-93
2022/01/30 05:24:56;;;;;;;63.28;12.40;;;;;;;;;;6190023;23;20070;-93
2022/01/30 05:27:22;;;;;;;52.95;10.45;;;;;;;;;;6190867;23;20016;-93
2022/01/30 05:29:47;;;;;;;61.08;11.55;;;;;;;;;;6217836;23;20007;-93
2022/01/30 05:32:13;;;;;;;55.97;10.88;;;;;;;;;;6189355;23;20004;-93
2022/01/30 05:34:38;;;;;;;56.38;10.63;;;;;;;;;;6188435;23;20008;-93
2022/01/30 05:37:05;;;;;;;63.35;10.38;;;;;;;;;;6188583;23;19996;-93
2022/01/30 05:39:30;;;;;;;54.50;10.65;;;;;;;;;;6191669;23;20028;-93
2022/01/30 05:41:56;;;;;;;50.15;8.85;;;;;;;;;;6190730;23;20079;-93
2022/01/30 05:44:31;;;;;;;59.42;11.95;;;;;;;;;;6187183;23;20095;-93
2022/01/30 05:46:58;;;;;;;57.20;11.35;;;;;;;;;;6215926;23;20047;-93
2022/01/30 05:49:25;;;;;;;64.30;10.68;;;;;;;;;;6192414;23;20001;-93
2022/01/30 05:51:50;;;;;;;55.92;9.20;;;;;;;;;;6192922;23;20004;-93
2022/01/30 05:54:16;;;;;;;64.32;9.48;;;;;;;;;;6193403;23;20011;-93
2022/01/30 05:56:41;;;;;;;68.93;11.98;;;;;;;;;;6190592;23;20003;-93
2022/01/30 05:59:06;;;;;;;59.65;10.43;;;;;;;;;;6195246;23;20004;-93
2022/01/30 06:01:32;;;;;;;52.25;11.20;;;;;;;;;;6190186;23;20421;-93
2022/01/30 06:03:57;;;;;;;60.63;12.27;;;;;;;;;;6189122;23;19996;-93
2022/01/30 06:06:23;;;;;;;68.43;10.43;;;;;;;;;;6193157;23;20004;-93
2022/01/30 06:11:35;;;;;;;49.60;9.48;;;;;;;;;;6217688;23;20007;-94
2022/01/30 06:14:04;;;;;;;52.50;10.90;;;;;;;;;;6205568;23;20003;-94
2022/01/30 06:16:30;;;;;;;46.78;10.23;;;;;;;;;;6208414;23;20063;-94
2022/01/30 06:18:56;;;;;;;64.60;10.25;;;;;;;;;;6202157;23;20007;-93
2022/01/30 06:21:21;;;;;;;49.25;9.35;;;;;;;;;;6189850;23;20083;-93
2022/01/30 06:23:47;;;;;;;45.67;9.82;;;;;;;;;;6194518;23;20001;-93
2022/01/30 06:26:13;;;;;;;50.97;8.80;;;;;;;;;;6195295;23;19997;-93
2022/01/30 06:28:38;;;;;;;57.05;11.23;;;;;;;;;;6197182;23;20088;-93
2022/01/30 06:31:03;;;;;;;55.47;9.93;;;;;;;;;;6192518;23;20009;-93
2022/01/30 06:33:29;;;;;;;45.65;9.15;;;;;;;;;;6194387;23;20000;-93
2022/01/30 06:35:54;;;;;;;58.38;10.38;;;;;;;;;;6194545;23;20000;-93
2022/01/30 06:38:19;;;;;;;62.03;11.05;;;;;;;;;;6197577;23;20720;-94
2022/01/30 06:40:45;;;;;;;61.83;11.35;;;;;;;;;;6192834;23;20000;-94
2022/01/30 06:43:10;;;;;;;45.00;8.57;;;;;;;;;;6194283;23;20032;-93
2022/01/30 06:45:36;;;;;;;53.72;9.18;;;;;;;;;;6193154;23;20008;-92
2022/01/30 06:48:01;;;;;;;62.60;10.90;;;;;;;;;;6193675;23;20035;-93
2022/01/30 06:50:26;;;;;;;54.28;10.65;;;;;;;;;;6192216;23;20001;-93
2022/01/30 06:52:52;;;;;;;69.43;11.52;;;;;;;;;;6192473;23;20723;-92
2022/01/30 06:55:17;;;;;;;57.75;11.60;;;;;;;;;;6220494;23;20020;-93
2022/01/30 06:57:44;;;;;;;55.42;11.07;;;;;;;;;;6193514;23;20000;-93
2022/01/30 07:00:10;;;;;;;61.88;11.77;;;;;;;;;;6193028;23;20001;-93
2022/01/30 07:02:35;;;;;;;64.50;10.13;;;;;;;;;;6219317;23;20035;-93
2022/01/30 07:05:00;;;;;;;52.75;10.35;;;;;;;;;;6193721;23;20016;-92
2022/01/30 07:07:26;;;;;;;55.90;11.48;;;;;;;;;;6194584;23;20059;-93
2022/01/30 07:09:51;;;;;;;54.05;11.02;;;;;;;;;;6194310;23;20004;-93
2022/01/30 07:12:17;;;;;;;69.97;11.15;;;;;;;;;;6221858;23;20597;-93
2022/01/30 07:14:42;;;;;;;70.65;11.45;;;;;;;;;;6221745;23;20072;-94
2022/01/30 07:17:07;;;;;;;56.28;10.30;;;;;;;;;;6193559;23;20048;-93
2022/01/30 07:19:33;;;;;;;66.55;12.45;;;;;;;;;;6216614;23;20001;-94
2022/01/30 07:21:58;;;;;;;55.75;11.82;;;;;;;;;;6192222;23;20080;-93
2022/01/30 07:24:24;;;;;;;69.15;11.65;;;;;;;;;;6191400;23;20021;-93
2022/01/30 07:26:49;;;;;;;61.85;11.70;;;;;;;;;;6194585;23;20090;-93
2022/01/30 07:29:14;;;;;;;58.83;11.68;;;;;;;;;;6195491;23;20007;-94
2022/01/30 07:31:40;;;;;;;57.40;11.63;;;;;;;;;;6194613;23;20044;-94
2022/01/30 07:34:05;;;;;;;50.30;10.23;;;;;;;;;;6202657;23;19996;-93
2022/01/30 07:36:35;;;;;;;54.45;9.23;;;;;;;;;;6201201;23;20027;-93
2022/01/30 07:39:01;;;;;;;49.75;10.55;;;;;;;;;;6197025;23;20028;-93
2022/01/30 07:41:51;;;;;;;59.60;11.82;;;;;;;;;;6201842;23;20377;-94
2022/01/30 07:44:28;;;;;;;65.80;12.07;;;;;;;;;;6180916;22;20025;-94
2022/01/30 07:46:59;;;;;;;72.15;12.73;;;;;;;;;;6176999;23;19997;-94
2022/01/30 07:54:48;;;;;;;62.38;11.13;;;;;;;;;;6167947;23;20472;-95
2022/01/30 08:17:03;;;;;;;61.00;11.38;;;;;;;;;;6157716;23;20021;-94
2022/01/30 08:22:14;;;;;;;58.17;10.50;;;;;;;;;;6187890;23;20032;-93
2022/01/30 08:24:40;;;;;;;66.57;9.88;;;;;;;;;;6177315;23;20060;-94
2022/01/30 08:40:03;;;;;;;;;;;;;;;;;;6169364;23;20059;-94
2022/01/30 09:06:54;;;;;;;65.75;11.15;;;;;;;;;;6185866;23;20080;-93
2022/01/30 09:09:23;;;;;;;53.17;11.63;;;;;;;;;;6173130;23;20133;-93
2022/01/30 09:17:04;;;;;;;66.13;11.63;;;;;;;;;;6174615;23;20881;-94
2022/01/30 09:27:59;;;;;;;64.32;11.38;;;;;;;;;;6153985;23;20092;-94
2022/01/30 10:06:13;;;;;;;52.38;10.98;;;;;;;;;;6189905;22;20028;-94
2022/01/30 10:25:08;;;;;;;52.78;8.63;;;;;;;;;;6192095;22;20059;-94
2022/01/30 10:30:11;;;;;;;57.83;9.73;;;;;;;;;;6195873;23;20019;-94
2022/01/30 10:32:38;;;;;;;54.88;10.73;;;;;;;;;;6202260;23;20064;-94
2022/01/30 10:35:08;;;;;;;51.53;10.57;;;;;;;;;;6202054;23;19992;-93
2022/01/30 10:37:40;;;;;;;48.83;9.20;;;;;;;;;;6207732;23;20062;-94
2022/01/30 10:40:16;;;;;;;55.70;8.95;;;;;;;;;;6203667;23;20009;-94
2022/01/30 10:45:27;;;;;;;40.65;8.38;;;;;;;;;;6167557;23;20032;-94
2022/01/30 10:48:17;;;;;;;49.67;10.07;;;;;;;;;;6206154;23;19985;-94
2022/01/30 11:10:26;;;;;;;38.40;6.65;;;;;;;;;;6191467;23;19927;-94
2022/01/30 11:13:08;;;;;;;38.58;7.40;;;;;;;;;;6181672;23;20338;-94
2022/01/30 11:15:42;;;;;;;41.97;7.68;;;;;;;;;;6174850;23;20381;-94
2022/01/30 11:18:08;;;;;;;46.97;7.32;;;;;;;;;;6172568;23;20001;-94
2022/01/30 11:20:34;;;;;;;43.78;7.72;;;;;;;;;;6172349;23;20012;-94
2022/01/30 11:23:01;;;;;;;61.50;7.75;;;;;;;;;;6200395;23;20009;-93
2022/01/30 11:28:04;;;;;;;47.58;7.25;;;;;;;;;;6195881;22;20009;-94
2022/01/30 11:30:43;;;;;;;42.50;10.05;;;;;;;;;;6196094;23;20029;-93
2022/01/30 11:33:13;;;;;;;47.47;7.60;;;;;;;;;;6196183;23;20004;-94
2022/01/30 11:35:39;;;;;;;47.58;8.55;;;;;;;;;;6200827;23;20012;-93
2022/01/30 11:38:05;;;;;;;46.88;7.57;;;;;;;;;;6198977;23;20009;-94
2022/01/30 11:40:31;;;;;;;52.72;8.50;;;;;;;;;;6204395;23;20001;-93
2022/01/30 11:43:08;;;;;;;46.08;8.13;;;;;;;;;;6195606;23;20357;-94
2022/01/30 11:45:35;;;;;;;42.40;8.07;;;;;;;;;;6188729;23;20009;-93
2022/01/30 11:48:10;;;;;;;27.13;6.90;;;;;;;;;;6191871;23;20417;-94
2022/01/30 11:50:35;;;;;;;41.33;7.63;;;;;;;;;;6193071;23;20017;-93
2022/01/30 11:53:04;;;;;;;41.40;8.70;;;;;;;;;;6190576;23;20429;-93
2022/01/30 11:55:46;;;;;;;36.08;7.07;;;;;;;;;;6191124;23;20005;-93
2022/01/30 11:58:30;;;;;;;34.83;6.82;;;;;;;;;;6193699;23;20008;-94
2022/01/30 12:01:00;;;;;;;35.17;7.90;;;;;;;;;;6166063;23;20016;-93
2022/01/30 12:03:27;;;;;;;41.97;6.90;;;;;;;;;;6187073;23;20024;-94
2022/01/30 12:05:53;;;;;;;37.88;7.05;;;;;;;;;;6189086;23;20393;-94
2022/01/30 12:08:54;;;;;;;34.55;6.15;;;;;;;;;;6190626;23;20001;-93
2022/01/30 12:11:28;;;;;;;35.53;7.25;;;;;;;;;;6040966;23;20009;-94
2022/01/30 12:13:53;;;;;;;44.65;7.40;;;;;;;;;;6146003;23;20005;-92
2022/01/30 12:16:37;;;;;;;35.05;7.18;;;;;;;;;;6185838;23;20072;-93
2022/01/30 12:19:03;;;;;;;35.28;6.43;;;;;;;;;;6162853;23;19997;-93
2022/01/30 12:21:28;;;;;;;30.30;5.80;;;;;;;;;;6197332;23;20035;-93
2022/01/30 12:23:53;;;;;;;33.50;6.45;;;;;;;;;;6193385;23;20004;-94
2022/01/30 12:26:19;;;;;;;29.45;5.57;;;;;;;;;;6187980;23;20013;-94
2022/01/30 12:28:49;;;;;;;28.83;6.75;;;;;;;;;;6163572;23;19997;-93
2022/01/30 12:31:24;;;;;;;30.63;6.18;;;;;;;;;;6187902;23;20048;-94
2022/01/30 12:34:10;;;;;;;37.92;6.00;;;;;;;;;;6189959;23;20005;-93
2022/01/30 12:36:37;;;;;;;36.75;7.35;;;;;;;;;;6190180;23;20032;-93
2022/01/30 12:39:04;;;;;;;30.25;6.07;;;;;;;;;;6190499;23;20001;-93
2022/01/30 12:41:30;;;;;;;30.38;5.75;;;;;;;;;;6187711;23;20075;-94
2022/01/30 12:43:57;;;;;;;42.88;7.85;;;;;;;;;;6188683;23;20108;-93
2022/01/30 12:46:23;;;;;;;42.40;7.07;;;;;;;;;;6188915;23;20080;-93
2022/01/30 12:49:01;;;;;;;29.60;5.95;;;;;;;;;;6188041;23;20001;-94
2022/01/30 12:51:27;;;;;;;44.80;7.45;;;;;;;;;;6189413;23;20009;-93
2022/01/30 12:53:54;;;;;;;43.33;7.78;;;;;;;;;;6190244;23;20004;-94
2022/01/30 12:56:21;;;;;;;38.45;8.65;;;;;;;;;;6190128;23;20596;-93
2022/01/30 12:58:48;;;;;;;41.10;8.40;;;;;;;;;;6190506;23;20031;-94
2022/01/30 13:01:14;;;;;;;40.00;7.85;;;;;;;;;;6186568;23;20330;-93
2022/01/30 13:03:39;;;;;;;34.20;6.82;;;;;;;;;;6188008;23;20430;-94
2022/01/30 13:06:05;;;;;;;34.22;6.38;;;;;;;;;;6187959;23;20013;-93
2022/01/30 13:08:44;;;;;;;36.78;6.88;;;;;;;;;;6188736;23;20013;-94
2022/01/30 13:11:20;;;;;;;25.58;6.03;;;;;;;;;;6188047;23;20012;-94
2022/01/30 13:13:55;;;;;;;44.17;7.38;;;;;;;;;;6186122;23;20386;-93
2022/01/30 13:16:22;;;;;;;31.33;6.72;;;;;;;;;;6190470;23;20073;-94
2022/01/30 13:18:47;;;;;;;39.67;6.45;;;;;;;;;;6191445;23;20001;-93
2022/01/30 13:21:13;;;;;;;40.03;8.10;;;;;;;;;;6189197;23;20009;-93
2022/01/30 13:23:38;;;;;;;28.38;6.18;;;;;;;;;;6185987;23;20015;-93
2022/01/30 13:26:06;;;;;;;31.42;6.22;;;;;;;;;;6185950;23;20009;-93
2022/01/30 13:28:31;;;;;;;24.80;6.38;;;;;;;;;;6186814;23;20382;-93
2022/01/30 13:31:10;;;;;;;27.90;5.70;;;;;;;;;;6188641;23;20020;-93
2022/01/30 13:33:36;;;;;;;27.95;6.10;;;;;;;;;;6188949;23;20012;-93
2022/01/30 13:36:01;;;;;;;35.50;5.78;;;;;;;;;;6187679;23;20013;-93
2022/01/30 13:38:27;;;;;;;26.38;5.35;;;;;;;;;;6187026;23;19993;-93
2022/01/30 13:40:58;;;;;;;27.70;5.60;;;;;;;;;;6188433;23;20479;-93
2022/01/30 13:43:27;;;;;;;27.15;5.70;;;;;;;;;;6162354;23;20438;-93
2022/01/30 13:48:19;;;;;;;25.38;5.80;;;;;;;;;;6190624;23;20367;-93
2022/01/30 13:50:53;;;;;;;27.02;6.45;;;;;;;;;;6187722;23;19997;-94
2022/01/30 13:53:21;;;;;;;39.83;8.00;;;;;;;;;;6161051;23;20004;-93
2022/01/30 13:55:54;;;;;;;45.13;7.25;;;;;;;;;;6163625;23;20098;-93
2022/01/30 13:58:21;;;;;;;34.28;6.45;;;;;;;;;;6186749;23;20016;-93
2022/01/30 14:00:47;;;;;;;34.28;6.82;;;;;;;;;;6185607;23;20001;-93
2022/01/30 14:03:20;;;;;;;32.97;5.35;;;;;;;;;;6186709;23;20795;-93
2022/01/30 14:05:46;;;;;;;33.33;7.15;;;;;;;;;;6185625;23;20017;-93
2022/01/30 14:08:12;;;;;;;34.53;5.43;;;;;;;;;;6188165;23;20012;-93
2022/01/30 14:10:38;;;;;;;38.65;6.78;;;;;;;;;;6184629;23;20091;-94
2022/01/30 14:13:08;;;;;;;29.13;6.57;;;;;;;;;;6189256;23;19997;-93
2022/01/30 14:15:35;;;;;;;32.00;6.95;;;;;;;;;;6187321;23;20012;-93
2022/01/30 14:18:21;;;;;;;41.13;7.00;;;;;;;;;;6188387;23;20282;-93
2022/01/30 14:20:48;;;;;;;28.40;5.63;;;;;;;;;;6190527;23;19997;-94
2022/01/30 14:23:15;;;;;;;26.00;5.53;;;;;;;;;;6188384;23;20037;-93
2022/01/30 14:25:41;;;;;;;29.77;5.57;;;;;;;;;;6190977;23;20036;-94
2022/01/30 14:28:23;;;;;;;32.45;7.00;;;;;;;;;;6191353;23;19998;-94
2022/01/30 14:30:49;;;;;;;33.35;6.70;;;;;;;;;;6189302;23;20005;-93
2022/01/30 14:33:14;;;;;;;32.15;6.18;;;;;;;;;;6189283;23;20036;-93
2022/01/30 14:35:39;;;;;;;41.25;6.78;;;;;;;;;;6189799;23;20430;-93
2022/01/30 14:38:06;;;;;;;25.80;6.15;;;;;;;;;;6189621;23;20026;-93
2022/01/30 14:40:31;;;;;;;28.85;5.85;;;;;;;;;;6189791;23;20009;-93
2022/01/30 14:42:57;;;;;;;36.05;5.95;;;;;;;;;;6190484;23;20104;-93
2022/01/30 14:45:23;;;;;;;31.55;6.00;;;;;;;;;;6188188;23;20013;-93
2022/01/30 14:47:48;;;;;;;29.20;5.63;;;;;;;;;;6164334;23;20032;-93
2022/01/30 14:50:14;;;;;;;26.77;5.43;;;;;;;;;;6189453;23;19997;-93
2022/01/30 14:52:40;;;;;;;29.65;4.60;;;;;;;;;;6188167;23;20028;-93
2022/01/30 14:55:05;;;;;;;25.75;4.65;;;;;;;;;;6187983;23;20370;-93
2022/01/30 14:57:30;;;;;;;29.42;4.75;;;;;;;;;;6187816;23;20020;-93
2022/01/30 14:59:56;;;;;;;20.65;4.43;;;;;;;;;;6189553;23;20056;-93
2022/01/30 15:02:21;;;;;;;22.87;6.70;;;;;;;;;;6189646;23;20100;-93
2022/01/30 15:04:46;;;;;;;24.27;4.47;;;;;;;;;;6190422;23;20287;-93
2022/01/30 15:07:12;;;;;;;28.48;5.60;;;;;;;;;;6189438;23;20005;-93
2022/01/30 15:09:37;;;;;;;29.50;6.00;;;;;;;;;;6188342;23;20036;-93
2022/01/30 15:12:03;;;;;;;24.00;5.22;;;;;;;;;;6189709;23;20005;-93
2022/01/30 15:14:35;;;;;;;28.98;6.35;;;;;;;;;;6189522;23;20051;-94
2022/01/30 15:17:01;;;;;;;25.63;5.78;;;;;;;;;;6188483;23;20134;-94
2022/01/30 15:19:27;;;;;;;28.77;5.47;;;;;;;;;;6188981;23;20001;-93
2022/01/30 15:21:52;;;;;;;23.65;4.90;;;;;;;;;;6189117;23;20005;-93
2022/01/30 15:24:19;;;;;;;29.52;6.95;;;;;;;;;;6187328;23;20005;-93
2022/01/30 15:26:44;;;;;;;23.30;4.40;;;;;;;;;;6189698;23;19996;-93
2022/01/30 15:29:10;;;;;;;24.75;4.90;;;;;;;;;;6190723;23;20056;-93
2022/01/30 15:31:35;;;;;;;29.63;6.53;;;;;;;;;;6190074;23;20066;-94
2022/01/30 15:34:01;;;;;;;38.25;6.45;;;;;;;;;;6189978;23;20385;-93
2022/01/30 15:36:26;;;;;;;42.78;6.43;;;;;;;;;;6189444;23;20008;-93
2022/01/30 15:38:52;;;;;;;35.97;6.00;;;;;;;;;;6191405;23;20075;-93
2022/01/30 15:41:18;;;;;;;33.53;6.53;;;;;;;;;;6190235;23;19997;-93
2022/01/30 15:43:43;;;;;;;28.52;6.72;;;;;;;;;;6191044;23;20462;-93
2022/01/30 15:51:32;;;;;;;30.63;6.28;;;;;;;;;;6205109;23;20005;-93
2022/01/30 15:53:58;;;;;;;32.83;7.15;;;;;;;;;;6190391;23;20036;-93
2022/01/30 15:56:23;;;;;;;24.60;6.28;;;;;;;;;;6190405;23;19997;-93
2022/01/30 15:58:49;;;;;;;28.83;6.65;;;;;;;;;;6191425;23;20011;-93
2022/01/30 16:01:14;;;;;;;30.23;6.50;;;;;;;;;;6187504;23;20411;-93
2022/01/30 16:03:39;;;;;;;37.33;6.45;;;;;;;;;;6191141;23;20232;-93
2022/01/30 16:06:04;;;;;;;29.23;6.55;;;;;;;;;;6191747;23;20009;-93
2022/01/30 16:08:36;;;;;;;31.08;7.18;;;;;;;;;;6188455;23;19997;-93
2022/01/30 16:11:18;;;;;;;35.75;10.00;;;;;;;;;;6190931;23;19996;-93
2022/01/30 16:16:28;;;;;;;40.28;8.60;;;;;;;;;;6192952;23;20008;-93
2022/01/30 16:18:53;;;;;;;34.97;8.05;;;;;;;;;;6191720;23;19997;-93
2022/01/30 16:21:19;;;;;;;41.95;11.50;;;;;;;;;;6194293;23;20058;-93
2022/01/30 16:23:44;;;;;;;44.45;11.05;;;;;;;;;;6195242;23;20032;-93
2022/01/30 16:26:10;;;;;;;47.35;8.80;;;;;;;;;;6190880;23;20768;-93
2022/01/30 16:28:35;;;;;;;46.97;11.55;;;;;;;;;;6188321;23;20005;-93
2022/01/30 16:31:00;;;;;;;44.95;10.95;;;;;;;;;;6189470;23;20055;-93
2022/01/30 16:33:26;;;;;;;49.33;7.75;;;;;;;;;;6190286;23;19997;-94
2022/01/30 16:35:51;;;;;;;44.20;9.18;;;;;;;;;;6188054;23;20009;-93
2022/01/30 16:38:17;;;;;;;39.83;9.02;;;;;;;;;;6189050;23;20378;-93
2022/01/30 16:40:42;;;;;;;34.78;6.25;;;;;;;;;;6186221;23;20092;-93
2022/01/30 16:43:14;;;;;;;41.42;8.73;;;;;;;;;;6185645;23;20099;-93
2022/01/30 16:45:48;;;;;;;37.53;8.23;;;;;;;;;;6186597;23;20076;-93
2022/01/30 16:48:18;;;;;;;36.38;8.27;;;;;;;;;;6187719;23;19993;-93
2022/01/30 16:50:43;;;;;;;32.83;6.05;;;;;;;;;;6188614;23;20096;-93
2022/01/30 16:53:12;;;;;;;31.23;6.05;;;;;;;;;;6187638;23;20001;-94
2022/01/30 16:55:37;;;;;;;41.97;8.32;;;;;;;;;;6186391;23;20071;-93
2022/01/30 16:58:02;;;;;;;42.80;6.40;;;;;;;;;;6186560;23;20752;-92
2022/01/30 17:00:28;;;;;;;42.85;6.55;;;;;;;;;;6186392;23;20705;-94
2022/01/30 17:02:53;;;;;;;38.63;6.65;;;;;;;;;;6188282;23;20009;-93
2022/01/30 17:05:18;;;;;;;37.67;6.95;;;;;;;;;;6188622;23;20004;-93
2022/01/30 17:07:45;;;;;;;43.17;7.85;;;;;;;;;;6191599;23;20012;-93
2022/01/30 17:10:12;;;;;;;30.02;6.60;;;;;;;;;;6189961;23;20001;-93
2022/01/30 17:15:24;;;;;;;36.70;6.13;;;;;;;;;;6200241;23;20039;-93
2022/01/30 17:17:49;;;;;;;34.72;6.30;;;;;;;;;;6163912;23;20016;-93
2022/01/30 17:20:14;;;;;;;31.05;6.38;;;;;;;;;;6190311;23;19993;-93
2022/01/30 17:22:40;;;;;;;32.55;5.53;;;;;;;;;;6188135;23;20005;-93
2022/01/30 17:25:05;;;;;;;35.90;5.35;;;;;;;;;;6186160;23;20024;-93
2022/01/30 17:27:33;;;;;;;42.78;6.82;;;;;;;;;;6189914;23;20012;-93
2022/01/30 17:30:03;;;;;;;24.90;5.13;;;;;;;;;;6187781;23;20008;-93
2022/01/30 17:32:28;;;;;;;36.25;5.43;;;;;;;;;;6185555;23;20001;-93
2022/01/30 17:34:53;;;;;;;35.72;5.82;;;;;;;;;;6187616;23;20023;-93
2022/01/30 17:37:19;;;;;;;30.25;5.55;;;;;;;;;;6188074;23;20008;-93
2022/01/30 17:39:45;;;;;;;33.20;5.32;;;;;;;;;;6188898;23;20055;-93
2022/01/30 17:42:11;;;;;;;23.40;4.53;;;;;;;;;;6185382;23;20100;-93
2022/01/30 17:44:37;;;;;;;28.35;4.43;;;;;;;;;;6186277;23;20036;-93
2022/01/30 17:47:02;;;;;;;26.10;5.65;;;;;;;;;;6185898;23;20329;-93
2022/01/30 17:49:27;;;;;;;27.52;4.38;;;;;;;;;;6183297;23;20108;-93
2022/01/30 17:51:52;;;;;;;26.27;5.45;;;;;;;;;;6186940;23;19997;-93
2022/01/30 17:54:18;;;;;;;29.00;5.13;;;;;;;;;;6187821;23;20100;-93
2022/01/30 17:56:44;;;;;;;24.40;4.85;;;;;;;;;;6185635;23;20302;-93
2022/01/30 17:59:09;;;;;;;25.15;5.00;;;;;;;;;;6188153;23;20036;-93
2022/01/30 18:01:34;;;;;;;21.38;4.13;;;;;;;;;;6187490;23;20351;-93
2022/01/30 18:04:00;;;;;;;27.42;5.70;;;;;;;;;;6186126;23;19997;-93
2022/01/30 18:06:25;;;;;;;15.63;3.83;;;;;;;;;;6192758;23;20013;-93
2022/01/30 18:14:18;;;;;;;27.50;4.35;;;;;;;;;;6173300;23;20033;-94
2022/01/30 18:16:51;;;;;;;24.42;5.38;;;;;;;;;;6166505;22;20040;-94
2022/01/30 18:22:09;;;;;;;21.75;4.75;;;;;;;;;;6203065;23;20028;-94
2022/01/30 18:27:10;;;;;;;27.08;4.00;;;;;;;;;;6169878;22;20024;-94
2022/01/30 18:29:38;;;;;;;22.00;4.72;;;;;;;;;;5794047;23;9455423;-94
2022/01/30 18:32:06;;;;;;;20.88;4.25;;;;;;;;;;6189956;22;20009;-94
2022/01/30 18:37:18;;;;;;;18.65;3.80;;;;;;;;;;6194282;23;20058;-94
2022/01/30 18:48:11;;;;;;;27.35;5.47;;;;;;;;;;6179534;22;20064;-94
2022/01/30 19:15:18;;;;;;;24.50;5.40;;;;;;;;;;6171456;23;20029;-94
2022/01/30 19:17:49;;;;;;;21.27;4.95;;;;;;;;;;6166444;23;20036;-94
2022/01/30 19:20:17;;;;;;;23.17;4.30;;;;;;;;;;6200052;22;20060;-94
2022/01/30 19:22:44;;;;;;;23.63;4.28;;;;;;;;;;6178912;23;20080;-94
2022/01/30 19:25:10;;;;;;;28.80;5.03;;;;;;;;;;6172144;23;20024;-94
2022/01/30 19:27:36;;;;;;;29.50;4.68;;;;;;;;;;6202918;23;20005;-94
2022/01/30 19:30:02;;;;;;;37.30;5.65;;;;;;;;;;6207428;23;20060;-94
2022/01/30 19:32:28;;;;;;;24.70;4.50;;;;;;;;;;6197043;23;19997;-94
2022/01/30 19:34:55;;;;;;;28.33;5.22;;;;;;;;;;6208100;23;20087;-95
2022/01/30 19:37:22;;;;;;;32.03;5.75;;;;;;;;;;6207905;23;19997;-94
2022/01/30 19:39:49;;;;;;;27.52;5.85;;;;;;;;;;6205299;23;20001;-94
2022/01/30 19:42:18;;;;;;;27.80;4.97;;;;;;;;;;6203057;23;20012;-94
2022/01/30 19:44:49;;;;;;;27.38;5.57;;;;;;;;;;6202197;23;20017;-94
2022/01/30 19:49:59;;;;;;;28.70;5.85;;;;;;;;;;6171459;22;20025;-94
2022/01/30 19:52:30;;;;;;;29.52;5.50;;;;;;;;;;6188773;23;20731;-94
2022/01/30 19:55:01;;;;;;;36.22;6.32;;;;;;;;;;6199215;23;20016;-94
2022/01/30 20:10:42;;;;;;;35.60;6.72;;;;;;;;;;6183014;23;20040;-94
2022/01/30 20:13:10;;;;;;;25.17;4.47;;;;;;;;;;6196954;23;20036;-94
2022/01/30 20:15:41;;;;;;;38.13;5.47;;;;;;;;;;6186171;22;20033;-94
2022/01/30 20:18:08;;;;;;;30.73;5.05;;;;;;;;;;6193469;23;20000;-94
2022/01/30 20:20:34;;;;;;;27.45;4.78;;;;;;;;;;6195260;23;20005;-93
2022/01/30 20:22:59;;;;;;;23.00;4.65;;;;;;;;;;6196148;23;20001;-94